Latest Coastal Weather Observations for Townsville

IDQ60701

Issued at 1:01 pm EST Saturday 29 August 2015 (issued every 10 minutes, with the page automatically refreshed every 10 minutes)

About coastal observations | Map of coastal stations | Coastal observations for QLD | Marine services | Other Formats
Station Details ID: 032040 Name: TOWNSVILLE AERO Lat: -19.25 Lon: 146.77 Height: 4.34 m
Data from the previous 72 hours. | See also: Recent months at Townsville
Date/Time
EST
Temp

°C
Wind Pressure Rain
since 9am
mm
Weather Cloud Vis
km
Sea
Height
m
Swell
Dir
 
Speed
knots
Gust
knots
hPa Trend Height
m
Period
s
Dir
29/12:30pm 26.4 ENE 11 15 1018.5 - 0.0 - Mostly clear 10 - - - -
29/12:00pm 26.0 ENE 11 15 1019.0 R 0.0 Haze Mostly clear 25 - - - -
29/11:30am 25.8 ENE 12 16 1019.4 - 0.0 - Mostly clear 10 - - - -
29/11:00am 26.5 ENE 10 17 1019.9 - 0.0 - Mostly clear 10 - - - -
29/10:30am 26.0 ENE 10 15 1020.2 - 0.0 - Mostly clear 10 - - - -
29/10:00am 25.8 ENE 9 14 1020.3 - 0.0 - Mostly clear 10 - - - -
29/09:30am 25.8 SE 8 10 1020.2 - 0.0 - Mostly clear 10 - - - -
29/09:00am 24.8 SE 9 13 1020.1 S 0.0 Haze Mostly clear 20 - - - -
29/08:30am 23.8 SE 6 8 1020.1 - 0.0 - Mostly clear 10 - - - -
29/08:00am 22.5 SSE 5 6 1019.8 - 0.0 - Mostly clear 10 - - - -
29/07:30am 21.3 SSE 6 7 1019.4 - 0.0 - Mostly clear 10 - - - -
29/07:00am 19.1 SE 5 6 1019.1 - 0.0 - Mostly clear 10 - - - -
29/06:30am 20.3 SE 6 7 1018.7 - 0.0 - Mostly clear 10 - - - -
29/06:00am 20.5 SE 7 8 1018.4 R 0.0 Haze Mostly clear 20 - - - -
29/05:30am 20.5 SE 7 8 1017.9 - 0.0 - - 10 - - - -
29/05:00am 20.6 SE 7 8 1017.6 - 0.0 - - 10 - - - -
29/04:30am 20.8 SE 7 8 1017.6 - 0.0 - - 10 - - - -
29/04:00am 20.7 SE 5 7 1017.6 - 0.0 - Partly cloudy 10 - - - -
29/03:30am 21.0 SE 5 6 1017.7 - 0.0 - Partly cloudy 10 - - - -
29/03:00am 21.1 SE 5 6 1017.8 - 0.0 - Partly cloudy 10 - - - -
29/02:30am 21.0 SE 5 5 1017.9 - 0.0 - Partly cloudy 10 - - - -
29/02:00am 21.2 SE 5 7 1018.2 - 0.0 - Partly cloudy 10 - - - -
29/01:30am 21.5 ESE 4 5 1018.5 - 0.0 - Partly cloudy 10 - - - -
29/01:00am 21.7 SE 5 7 1018.9 - 0.0 - Partly cloudy 10 - - - -
29/12:30am 21.7 ESE 4 6 1019.3 - 0.0 - Partly cloudy 10 - - - -
29/12:00am 22.4 E 6 7 1019.2 - 0.0 - Mostly clear 10 - - - -
 
Date/Time
EST
Temp

°C
Wind Pressure Rain
since 9am
mm
Weather Cloud Vis
km
Sea
Height
m
Swell
Dir
 
Speed
knots
Gust
knots
hPa Trend Height
m
Period
s
Dir
28/11:30pm 22.6 E 7 10 1019.3 - 0.0 - Partly cloudy 10 - - - -
28/11:16pm 22.6 ENE 6 9 1019.2 - 0.0 - Partly cloudy 10 - - - -
28/11:00pm 22.6 ENE 7 8 1019.3 - 0.0 - Partly cloudy 10 - - - -
28/10:44pm 22.5 ENE 7 11 1019.2 - 0.0 - Partly cloudy 10 - - - -
28/10:30pm 22.5 ENE 7 9 1019.1 - 0.0 - Partly cloudy 10 - - - -
28/10:00pm 22.7 ENE 7 10 1019.3 - 0.0 - Partly cloudy 10 - - - -
28/09:49pm 22.8 ENE 8 10 1019.4 - 0.0 - Partly cloudy 10 - - - -
28/09:30pm 22.5 ENE 5 7 1019.4 - 0.0 - Partly cloudy 10 - - - -
28/09:11pm 22.4 ENE 4 6 1019.3 - 0.0 - Partly cloudy 10 - - - -
28/09:00pm 22.4 NE 6 7 1019.3 - 0.0 - Mostly clear 10 - - - -
28/08:30pm 22.6 NE 6 7 1019.3 - 0.0 - - 10 - - - -
28/08:00pm 22.7 NE 7 8 1019.0 - 0.0 - - 10 - - - -
28/07:30pm 22.8 ENE 7 8 1018.7 - 0.0 - - 10 - - - -
28/07:00pm 23.0 ENE 9 11 1018.3 - 0.0 - - 10 - - - -
28/06:30pm 23.1 ENE 9 12 1017.8 - 0.0 - - 10 - - - -
28/06:00pm 23.2 ENE 10 12 1017.5 - 0.0 - - 10 - - - -
28/05:30pm 23.7 ENE 12 15 1017.1 - 0.0 - Mostly clear 10 - - - -
28/05:00pm 24.5 ENE 12 16 1016.9 - 0.0 - Mostly clear 10 - - - -
28/04:30pm 25.1 ENE 14 17 1016.7 - 0.0 - Mostly clear 10 - - - -
28/04:00pm 24.9 NE 13 16 1016.7 - 0.0 - Mostly clear 10 - - - -
28/03:30pm 25.7 NE 14 17 1016.4 - 0.0 - Mostly clear 10 - - - -
28/03:00pm 25.4 ENE 15 19 1016.4 R 0.0 Smoke Mostly clear 30 - - - -
28/02:30pm 26.0 ENE 15 18 1016.6 - 0.0 - Mostly clear 10 - - - -
28/02:00pm 25.9 ENE 15 19 1016.6 - 0.0 - Mostly clear 10 - - - -
28/01:30pm 26.0 ENE 17 19 1017.1 - 0.0 - Mostly clear 10 - - - -
28/01:00pm 26.2 NE 15 19 1017.5 - 0.0 - Mostly clear 10 - - - -
28/12:30pm 26.1 NE 12 16 1018.3 - 0.0 - Mostly clear 10 - - - -
28/12:00pm 25.9 NE 12 15 1018.7 F 0.0 Haze Partly cloudy 30 - - - -
28/11:30am 25.6 NE 10 15 1019.2 - 0.0 - Mostly clear 10 - - - -
28/11:00am 25.7 ENE 10 13 1019.9 - 0.0 - Mostly clear 10 - - - -
28/10:30am 26.5 ENE 7 12 1020.1 - 0.0 - Mostly clear 10 - - - -
28/10:00am 24.9 SE 7 9 1020.3 - 0.0 - Mostly clear 10 - - - -
28/09:30am 24.7 ESE 8 10 1020.4 - 0.0 - Mostly clear 10 - - - -
28/09:00am 24.4 SE 9 11 1020.5 R 0.0 Haze Partly cloudy 20 - - - -
28/08:30am 23.7 SE 5 8 1020.3 - 0.0 - Mostly clear 10 - - - -
28/08:00am 22.5 SSE 6 7 1019.9 - 0.0 - Mostly clear 10 - - - -
28/07:30am 19.9 CALM 0 0 1019.6 - 0.0 - Mostly clear 10 - - - -
28/07:00am 16.9 WSW 1 4 1019.0 - 0.0 - Mostly clear 10 - - - -
28/06:30am 17.5 S 5 6 1018.9 - 0.0 Shallow fog Mostly clear 10 - - - -
28/06:00am 18.5 SW 4 5 1018.5 S 0.0 Shallow fog Partly cloudy 20 - - - -
28/05:30am 18.2 SSE 4 5 1018.3 - 0.0 - Mostly clear 10 - - - -
28/05:00am 18.4 S 4 5 1018.2 - 0.0 - Partly cloudy 10 - - - -
28/04:30am 19.6 S 4 5 1018.2 - 0.0 - Partly cloudy 10 - - - -
28/04:00am 20.0 SSE 5 5 1018.0 - 0.0 - Partly cloudy 10 - - - -
28/03:30am 20.3 SE 5 6 1018.0 - 0.0 - Partly cloudy 10 - - - -
28/03:00am 20.3 SE 6 7 1018.1 - 0.0 - - 10 - - - -
28/02:30am 20.7 SE 5 6 1018.2 - 0.0 - Partly cloudy 10 - - - -
28/02:00am 21.4 SSE 5 6 1018.4 - 0.0 - Partly cloudy 10 - - - -
28/01:30am 21.3 SE 5 7 1018.6 - 0.0 - Partly cloudy 10 - - - -
28/01:00am 21.2 SE 5 7 1018.8 - 0.0 - Partly cloudy 10 - - - -
28/12:30am 21.1 SE 6 7 1019.1 - 0.0 - Partly cloudy 10 - - - -
28/12:00am 21.2 SE 6 7 1019.3 - 0.0 - Mostly clear 10 - - - -
 
Date/Time
EST
Temp

°C
Wind Pressure Rain
since 9am
mm
Weather Cloud Vis
km
Sea
Height
m
Swell
Dir
 
Speed
knots
Gust
knots
hPa Trend Height
m
Period
s
Dir
27/11:30pm 21.5 SSE 7 8 1019.6 - 0.0 - Partly cloudy 10 - - - -
27/11:00pm 21.1 SE 4 5 1019.6 - 0.0 - - 10 - - - -
27/10:30pm 21.6 E 5 7 1019.7 - 0.0 - Partly cloudy 10 - - - -
27/10:00pm 22.0 ESE 5 7 1019.9 - 0.0 - Partly cloudy 10 - - - -
27/09:30pm 22.4 E 7 9 1019.8 - 0.0 - - 10 - - - -
27/09:00pm 22.6 E 7 10 1019.6 - 0.0 - Mostly clear 10 - - - -
27/08:30pm 22.7 E 11 15 1019.5 - 0.0 - - 10 - - - -
27/08:00pm 22.8 E 8 10 1019.4 - 0.0 - - 10 - - - -
27/07:30pm 22.8 E 6 9 1019.2 - 0.0 - - 10 - - - -
27/07:00pm 23.2 ENE 8 10 1018.8 - 0.0 - - 10 - - - -
27/06:30pm 23.4 ENE 9 12 1018.4 - 0.0 - - 10 - - - -
27/06:00pm 23.7 ENE 10 14 1017.9 - 0.0 - - 10 - - - -
27/05:30pm 24.4 ENE 12 15 1017.6 - 0.0 - Mostly clear 10 - - - -
27/05:00pm 25.0 ENE 13 15 1017.5 - 0.0 - Mostly clear 10 - - - -
27/04:30pm 25.1 ENE 12 15 1017.2 - 0.0 - Mostly clear 10 - - - -
27/04:00pm 25.5 ENE 13 16 1017.2 - 0.0 - Mostly clear 10 - - - -
27/03:30pm 26.2 NE 11 15 1017.3 - 0.0 - Mostly clear 10 - - - -
27/03:00pm 25.8 ENE 13 18 1017.3 R 0.0 Smoke Partly cloudy 35 - - - -
27/02:30pm 26.6 ENE 13 17 1017.3 - 0.0 - Mostly clear 10 - - - -
27/02:00pm 27.3 ENE 11 16 1017.6 - 0.0 - Mostly clear 10 - - - -
27/01:30pm 27.3 ENE 12 15 1018.0 - 0.0 - Mostly clear 10 - - - -
27/01:00pm 26.7 NE 12 16 1018.5 - 0.0 - Mostly clear 10 - - - -
27/12:30pm 26.3 NE 11 16 1018.8 - 0.0 - Mostly clear 10 - - - -
27/12:00pm 26.4 NE 10 13 1019.0 F 0.0 Haze Partly cloudy 35 - - - -
27/11:30am 26.2 ENE 10 14 1019.5 - 0.0 - Mostly clear 10 - - - -
27/11:00am 26.1 ENE 10 15 1019.8 - 0.0 - Mostly clear 10 - - - -
27/10:30am 26.3 NE 9 14 1020.2 - 0.0 - Mostly clear 10 - - - -
27/10:00am 25.5 ENE 9 14 1020.3 - 0.0 - Mostly clear 10 - - - -
27/09:30am 25.6 E 9 15 1020.2 - 0.0 - Mostly clear 10 - - - -
27/09:00am 25.0 E 7 10 1020.3 R 0.0 Haze Partly cloudy 30 - - - -
27/08:30am 24.0 SE 8 10 1020.2 - 0.0 - Mostly clear 10 - - - -
27/08:00am 22.6 SSE 7 9 1020.0 - 0.0 - Mostly clear 10 - - - -
27/07:30am 21.9 SE 5 7 1019.5 - 0.0 - Mostly clear 10 - - - -
27/07:00am 21.4 SE 6 8 1019.4 - 0.0 - Mostly clear 10 - - - -
27/06:30am 20.7 SE 7 8 1019.0 - 0.0 - Mostly clear 10 - - - -
27/06:00am 20.4 ESE 7 8 1018.4 R 0.0 Haze Partly cloudy 25 - - - -
27/05:30am 20.6 ESE 7 8 1018.1 - 0.0 - Partly cloudy 10 - - - -
27/05:00am 20.7 ESE 7 9 1018.0 - 0.0 - Partly cloudy 10 - - - -
27/04:30am 20.7 SE 7 9 1017.8 - 0.0 - Partly cloudy 10 - - - -
27/04:00am 20.6 SE 7 8 1017.6 - 0.0 - Partly cloudy 10 - - - -
27/03:30am 20.1 SE 7 8 1017.7 - 0.0 - Partly cloudy 10 - - - -
27/03:00am 19.3 ESE 1 4 1017.9 - 0.0 - Cloudy 10 - - - -
27/02:30am 19.8 ESE 1 4 1018.1 - 0.0 - Partly cloudy 10 - - - -
27/02:00am 20.2 ESE 5 5 1018.2 - 0.0 - Partly cloudy 10 - - - -
27/01:30am 20.2 SE 5 6 1018.6 - 0.0 - - 10 - - - -
27/01:00am 20.5 SSE 6 7 1019.1 - 0.0 - Partly cloudy 10 - - - -
27/12:30am 20.3 SE 6 6 1019.3 - 0.0 - Partly cloudy 10 - - - -
27/12:00am 19.2 E 5 6 1019.5 - 0.0 - - 10 - - - -
 
Date/Time
EST
Temp

°C
Wind Pressure Rain
since 9am
mm
Weather Cloud Vis
km
Sea
Height
m
Swell
Dir
 
Speed
knots
Gust
knots
hPa Trend Height
m
Period
s
Dir
26/11:30pm 19.3 CALM 0 0 1019.5 - 0.0 - Partly cloudy 10 - - - -
26/11:00pm 20.9 SE 4 5 1019.6 - 0.0 - Partly cloudy 10 - - - -
26/10:30pm 21.4 ESE 4 5 1019.8 - 0.0 - Mostly clear 10 - - - -
26/10:00pm 21.7 ESE 4 5 1019.9 - 0.0 - Mostly clear 10 - - - -
26/09:30pm 21.4 E 5 7 1020.1 - 0.0 - Mostly clear 10 - - - -
26/09:00pm 21.8 E 5 6 1020.1 F 0.0 Haze Mostly clear 25 - - - -
26/08:30pm 21.8 E 6 7 1020.1 - 0.0 - Mostly clear 10 - - - -
26/08:00pm 22.2 ENE 7 8 1019.8 - 0.0 - Mostly clear 10 - - - -
26/07:30pm 22.5 E 7 8 1019.6 - 0.0 - Mostly clear 10 - - - -
26/07:00pm 22.7 ENE 7 10 1019.2 - 0.0 - Mostly clear 10 - - - -
26/06:30pm 23.0 ENE 8 10 1018.9 - 0.0 - Mostly clear 10 - - - -
26/06:00pm 23.2 ENE 9 12 1018.6 R 0.0 Haze Partly cloudy 25 - - - -
26/05:30pm 23.9 ENE 11 14 1018.4 - 0.0 - Mostly clear 10 - - - -
26/05:00pm 24.6 ENE 14 16 1018.0 - 0.0 - Mostly clear 10 - - - -
26/04:30pm 25.1 ENE 14 17 1017.7 - 0.0 - Mostly clear 10 - - - -
26/04:00pm 25.1 ENE 16 19 1017.6 - 0.0 - Mostly clear 10 - - - -
26/03:30pm 25.5 ENE 16 20 1017.2 - 0.0 - Mostly clear 10 - - - -
26/03:00pm 26.0 NE 16 19 1017.4 R 0.0 Haze Mostly clear 30 - - - -
26/02:30pm 26.2 ENE 16 19 1017.5 - 0.0 - Mostly clear 10 - - - -
26/02:00pm 26.0 NE 15 17 1017.7 - 0.0 - Mostly clear 10 - - - -
26/01:30pm 26.9 NE 14 16 1018.0 - 0.0 - Mostly clear 10 - - - -

Other Formats:

Comma delimited format used in spreadsheet applications
http://www.bom.gov.au/fwo/IDQ60701/IDQ60701.94294.axf

JavaScript Object Notation format (JSON) in row-major order
http://www.bom.gov.au/fwo/IDQ60701/IDQ60701.94294.json